Time;durP1;ratioP1;P1;durP2;ratioP2;P2;SDS_P1;SDS_P2;PMS_P1;PMS_P2;Temp;Humidity;BMP_temperature;BMP_pressure;BME280_temperature;BME280_humidity;BME280_pressure;Samples;Min_cycle;Max_cycle;Signal;HPM_P1;HPM_P2
2022/09/13 00:02:11;;;;;;;;;;;18.20;99.90;;;;;;5085760;27;20359;-78
2022/09/13 00:04:37;;;;;;;;;;;18.10;99.90;;;;;;5119256;27;20013;-79
2022/09/13 00:07:02;;;;;;;;;;;18.20;99.90;;;;;;5117507;27;19923;-79
2022/09/13 00:09:28;;;;;;;;;;;18.20;99.90;;;;;;5153328;27;19923;-78
2022/09/13 00:11:53;;;;;;;;;;;18.20;99.90;;;;;;5136080;27;19923;-79
2022/09/13 00:14:19;;;;;;;;;;;18.20;99.90;;;;;;5118337;27;19923;-78
2022/09/13 00:16:44;;;;;;;;;;;18.20;99.90;;;;;;5102310;27;20014;-78
2022/09/13 00:19:10;;;;;;;;;;;18.30;99.90;;;;;;5117294;27;19948;-79
2022/09/13 00:21:35;;;;;;;;;;;18.20;99.90;;;;;;5119179;27;19930;-79
2022/09/13 00:24:01;;;;;;;;;;;18.20;99.90;;;;;;5138144;27;20429;-79
2022/09/13 00:26:27;;;;;;;;;;;18.20;99.90;;;;;;5132688;28;19992;-78
2022/09/13 00:28:54;;;;;;;;;;;18.20;99.90;;;;;;5092895;27;20320;-79
2022/09/13 00:31:22;;;;;;;;;;;18.20;99.90;;;;;;5119220;27;20351;-78
2022/09/13 00:33:47;;;;;;;;;;;18.20;99.90;;;;;;5152466;27;19987;-81
2022/09/13 00:36:14;;;;;;;;;;;18.20;99.90;;;;;;5118777;27;19923;-78
2022/09/13 00:38:40;;;;;;;;;;;18.20;99.90;;;;;;5134420;27;19976;-78
2022/09/13 00:41:10;;;;;;;;;;;18.20;99.90;;;;;;5135650;27;19923;-77
2022/09/13 00:43:39;;;;;;;;;;;18.20;99.90;;;;;;5118381;27;20434;-77
2022/09/13 00:46:05;;;;;;;;;;;18.20;99.90;;;;;;5135339;27;19934;-78
2022/09/13 00:48:32;;;;;;;;;;;18.20;99.90;;;;;;5116389;27;19931;-78
2022/09/13 00:50:58;;;;;;;;;;;18.20;99.90;;;;;;5121952;27;20331;-78
2022/09/13 00:53:29;;;;;;;;;;;18.20;99.90;;;;;;5117857;27;19931;-78
2022/09/13 00:55:57;;;;;;;;;;;18.10;99.90;;;;;;5098162;27;20287;-79
2022/09/13 00:58:27;;;;;;;;;;;18.10;99.90;;;;;;5118089;27;20439;-78
2022/09/13 01:00:54;;;;;;;;;;;18.10;99.90;;;;;;5138328;27;19938;-79
2022/09/13 01:03:21;;;;;;;;;;;18.20;99.90;;;;;;5124429;27;19988;-79
2022/09/13 01:05:53;;;;;;;;;;;18.20;99.90;;;;;;5101606;27;19931;-78
2022/09/13 01:08:21;;;;;;;;;;;18.20;99.90;;;;;;5101842;27;19923;-80
2022/09/13 01:10:48;;;;;;;;;;;18.20;99.90;;;;;;5134189;27;19923;-78
2022/09/13 01:13:18;;;;;;;;;;;18.20;99.90;;;;;;5121039;27;19937;-78
2022/09/13 01:15:44;;;;;;;;;;;18.20;99.90;;;;;;5135853;27;20458;-78
2022/09/13 01:18:10;;;;;;;;;;;18.20;99.90;;;;;;5101907;27;19923;-78
2022/09/13 01:20:59;;;;;;;;;;;18.20;99.90;;;;;;5134323;27;19927;-78
2022/09/13 01:23:33;;;;;;;;;;;18.20;99.90;;;;;;5110048;27;19960;-78
2022/09/13 01:26:02;;;;;;;;;;;18.20;99.90;;;;;;5120328;27;20347;-78
2022/09/13 01:28:33;;;;;;;;;;;18.20;99.90;;;;;;5121327;27;19981;-79
2022/09/13 01:31:18;;;;;;;;;;;18.30;99.90;;;;;;5109214;27;20010;-78
2022/09/13 01:33:59;;;;;;;;;;;18.20;99.90;;;;;;5137141;27;20362;-78
2022/09/13 01:36:34;;;;;;;;;;;18.30;99.90;;;;;;5120199;27;20315;-78
2022/09/13 01:39:03;;;;;;;;;;;18.30;99.90;;;;;;5123069;27;19930;-79
2022/09/13 01:41:35;;;;;;;;;;;18.30;99.90;;;;;;5134061;27;20396;-78
2022/09/13 01:44:01;;;;;;;;;;;18.20;99.90;;;;;;5105580;27;19930;-78
2022/09/13 01:46:32;;;;;;;;;;;18.10;99.90;;;;;;5117221;27;19923;-77
2022/09/13 01:49:18;;;;;;;;;;;17.90;99.90;;;;;;5135852;27;19948;-79
2022/09/13 01:51:59;;;;;;;;;;;17.90;99.90;;;;;;5147184;27;19976;-78
2022/09/13 01:55:00;;;;;;;;;;;17.80;99.90;;;;;;5106397;27;19923;-78
2022/09/13 01:57:31;;;;;;;;;;;17.80;99.90;;;;;;5054185;28;19931;-77
2022/09/13 02:00:03;;;;;;;;;;;17.70;99.90;;;;;;5106995;27;19923;-81
2022/09/13 02:02:31;;;;;;;;;;;17.60;99.90;;;;;;5119069;27;20335;-78
2022/09/13 02:05:02;;;;;;;;;;;17.50;99.90;;;;;;5124995;27;20385;-78
2022/09/13 02:07:31;;;;;;;;;;;17.50;99.90;;;;;;5113990;27;19924;-77
2022/09/13 02:09:58;;;;;;;;;;;17.40;99.90;;;;;;5100529;27;19923;-78
2022/09/13 02:12:25;;;;;;;;;;;17.40;99.90;;;;;;5132030;27;19989;-77
2022/09/13 02:15:14;;;;;;;;;;;17.40;99.90;;;;;;5137885;27;19978;-78
2022/09/13 02:17:42;;;;;;;;;;;17.40;99.90;;;;;;5109227;27;19924;-78
2022/09/13 02:20:12;;;;;;;;;;;17.40;99.90;;;;;;5100297;27;19928;-78
2022/09/13 02:22:42;;;;;;;;;;;17.40;99.90;;;;;;5134470;27;19927;-78
2022/09/13 02:25:18;;;;;;;;;;;17.50;99.90;;;;;;5100068;27;19923;-77
2022/09/13 02:27:45;;;;;;;;;;;17.50;99.90;;;;;;5137126;27;19927;-78
2022/09/13 02:30:11;;;;;;;;;;;17.50;99.90;;;;;;5120677;27;20013;-78
2022/09/13 02:32:40;;;;;;;;;;;17.50;99.90;;;;;;5120162;27;19927;-78
2022/09/13 02:35:09;;;;;;;;;;;17.50;99.90;;;;;;5119873;27;19923;-78
2022/09/13 02:37:36;;;;;;;;;;;17.50;99.90;;;;;;5137174;27;19927;-78
2022/09/13 02:40:08;;;;;;;;;;;17.60;99.90;;;;;;5120404;27;19976;-78
2022/09/13 02:42:37;;;;;;;;;;;17.60;99.90;;;;;;5137710;27;19981;-78
2022/09/13 02:45:04;;;;;;;;;;;17.60;99.90;;;;;;5120146;27;19930;-78
2022/09/13 02:47:56;;;;;;;;;;;17.60;99.90;;;;;;5137266;27;20062;-78
2022/09/13 02:50:40;;;;;;;;;;;17.60;99.90;;;;;;5114677;27;20648;-78
2022/09/13 02:53:29;;;;;;;;;;;17.60;99.90;;;;;;5137447;27;19923;-78
2022/09/13 02:56:00;;;;;;;;;;;17.60;99.90;;;;;;5120338;27;20107;-78
2022/09/13 02:58:41;;;;;;;;;;;17.60;99.90;;;;;;5136727;27;20359;-78
2022/09/13 03:01:07;;;;;;;;;;;17.50;99.90;;;;;;5136896;27;19973;-78
2022/09/13 03:03:32;;;;;;;;;;;17.60;99.90;;;;;;5120158;27;19981;-78
2022/09/13 03:05:59;;;;;;;;;;;17.60;99.90;;;;;;5120247;27;19927;-78
2022/09/13 03:08:24;;;;;;;;;;;17.50;99.90;;;;;;5119550;27;20005;-78
2022/09/13 03:10:55;;;;;;;;;;;17.50;99.90;;;;;;5116968;27;19977;-78
2022/09/13 03:13:41;;;;;;;;;;;17.50;99.90;;;;;;5116299;27;19929;-78
2022/09/13 03:16:06;;;;;;;;;;;17.50;99.90;;;;;;5115769;27;19927;-78
2022/09/13 03:18:50;;;;;;;;;;;17.60;99.90;;;;;;5136398;27;20407;-78
2022/09/13 03:21:19;;;;;;;;;;;17.60;99.90;;;;;;5118890;27;20013;-78
2022/09/13 03:23:54;;;;;;;;;;;17.50;99.90;;;;;;5136869;27;19942;-78
2022/09/13 03:26:25;;;;;;;;;;;17.50;99.90;;;;;;5135997;27;20385;-78
2022/09/13 03:29:17;;;;;;;;;;;17.50;99.90;;;;;;5136486;27;19923;-77
2022/09/13 03:31:59;;;;;;;;;;;17.50;99.90;;;;;;5080883;27;19924;-78
2022/09/13 03:34:46;;;;;;;;;;;17.50;99.90;;;;;;5132506;27;19927;-78
2022/09/13 03:37:16;;;;;;;;;;;17.50;99.90;;;;;;5115954;27;20268;-78
2022/09/13 03:39:49;;;;;;;;;;;17.50;99.90;;;;;;5116424;27;19927;-78
2022/09/13 03:42:20;;;;;;;;;;;17.60;99.90;;;;;;5115991;28;19923;-78
2022/09/13 03:44:48;;;;;;;;;;;17.50;99.90;;;;;;5132726;28;19927;-78
2022/09/13 03:47:15;;;;;;;;;;;17.50;99.90;;;;;;5127379;27;20214;-78
2022/09/13 03:49:40;;;;;;;;;;;17.50;99.90;;;;;;5115362;28;19924;-78
2022/09/13 03:52:06;;;;;;;;;;;17.50;99.90;;;;;;5133049;28;19976;-78
2022/09/13 03:54:35;;;;;;;;;;;17.60;99.90;;;;;;5115074;28;19969;-77
2022/09/13 03:57:10;;;;;;;;;;;17.60;99.90;;;;;;5133030;28;19946;-77
2022/09/13 03:59:37;;;;;;;;;;;17.60;99.90;;;;;;5132848;28;19927;-78
2022/09/13 04:02:04;;;;;;;;;;;17.60;99.90;;;;;;5132807;28;20002;-77
2022/09/13 04:04:30;;;;;;;;;;;17.60;99.90;;;;;;5132421;28;20055;-78
2022/09/13 04:06:55;;;;;;;;;;;17.60;99.90;;;;;;5115396;28;20448;-78
2022/09/13 04:09:21;;;;;;;;;;;17.60;99.90;;;;;;5132760;28;19924;-78
2022/09/13 04:11:47;;;;;;;;;;;17.60;99.90;;;;;;5098760;28;20274;-78
2022/09/13 04:14:14;;;;;;;;;;;17.60;99.90;;;;;;5132262;28;19924;-79
2022/09/13 04:16:40;;;;;;;;;;;17.60;99.90;;;;;;5132413;28;19924;-79
2022/09/13 04:19:06;;;;;;;;;;;17.60;99.90;;;;;;5115873;28;20275;-77
2022/09/13 04:21:31;;;;;;;;;;;17.60;99.90;;;;;;5094902;28;20821;-78
2022/09/13 04:23:57;;;;;;;;;;;17.60;99.90;;;;;;5112031;28;19924;-78
2022/09/13 04:26:23;;;;;;;;;;;17.60;99.90;;;;;;5115874;28;19966;-78
2022/09/13 04:28:48;;;;;;;;;;;17.60;99.90;;;;;;5094726;28;19967;-78
2022/09/13 04:31:14;;;;;;;;;;;17.60;99.90;;;;;;5095270;28;20209;-82
2022/09/13 04:33:40;;;;;;;;;;;17.50;99.90;;;;;;5081300;28;19924;-78
2022/09/13 04:36:05;;;;;;;;;;;17.50;99.90;;;;;;5082252;28;19928;-77
2022/09/13 04:38:31;;;;;;;;;;;17.50;99.90;;;;;;5130290;27;19923;-78
2022/09/13 04:40:57;;;;;;;;;;;17.50;99.90;;;;;;5113884;27;19976;-78
2022/09/13 04:43:23;;;;;;;;;;;17.40;99.90;;;;;;5120668;27;20014;-78
2022/09/13 04:45:48;;;;;;;;;;;17.40;99.90;;;;;;5116027;28;19985;-78
2022/09/13 04:48:15;;;;;;;;;;;17.40;99.90;;;;;;5106039;27;19970;-78
2022/09/13 04:50:40;;;;;;;;;;;17.40;99.90;;;;;;5135900;27;20298;-79
2022/09/13 04:53:06;;;;;;;;;;;17.40;99.90;;;;;;5098379;28;19931;-78
2022/09/13 04:55:31;;;;;;;;;;;17.40;99.90;;;;;;5097898;28;19924;-78
2022/09/13 04:57:57;;;;;;;;;;;17.30;99.90;;;;;;5081996;27;19992;-78
2022/09/13 05:00:24;;;;;;;;;;;17.30;99.90;;;;;;5119091;27;19946;-78
2022/09/13 05:02:53;;;;;;;;;;;17.30;99.90;;;;;;5119162;27;19972;-77
2022/09/13 05:05:19;;;;;;;;;;;17.30;99.90;;;;;;5118805;27;19924;-78
2022/09/13 05:07:44;;;;;;;;;;;17.30;99.90;;;;;;5118704;27;19935;-78
2022/09/13 05:10:10;;;;;;;;;;;17.30;99.90;;;;;;5115127;28;20328;-77
2022/09/13 05:12:35;;;;;;;;;;;17.20;99.90;;;;;;5115032;28;19923;-77
2022/09/13 05:15:01;;;;;;;;;;;17.30;99.90;;;;;;5098132;28;19924;-77
2022/09/13 05:17:28;;;;;;;;;;;17.20;99.90;;;;;;5097930;28;19924;-78
2022/09/13 05:19:54;;;;;;;;;;;17.20;99.90;;;;;;5125972;27;20291;-78
2022/09/13 05:22:19;;;;;;;;;;;17.20;99.90;;;;;;5135623;27;19924;-82
2022/09/13 05:24:45;;;;;;;;;;;17.10;99.90;;;;;;5118467;27;20408;-78
2022/09/13 05:27:10;;;;;;;;;;;17.10;99.90;;;;;;5135463;27;20063;-77
2022/09/13 05:29:36;;;;;;;;;;;17.10;99.90;;;;;;5135151;27;20306;-78
2022/09/13 05:32:03;;;;;;;;;;;17.00;99.90;;;;;;5135557;27;19938;-78
2022/09/13 05:34:28;;;;;;;;;;;17.00;99.90;;;;;;5117162;27;19930;-78
2022/09/13 05:36:54;;;;;;;;;;;16.90;99.90;;;;;;5114575;27;19923;-79
2022/09/13 05:39:21;;;;;;;;;;;16.90;99.90;;;;;;5101135;28;19924;-78
2022/09/13 05:41:47;;;;;;;;;;;16.80;99.90;;;;;;5132601;27;19930;-78
2022/09/13 05:44:12;;;;;;;;;;;16.80;99.90;;;;;;5117443;27;19924;-79
2022/09/13 05:46:38;;;;;;;;;;;16.70;99.90;;;;;;5135198;27;19923;-77
2022/09/13 05:49:03;;;;;;;;;;;16.70;99.90;;;;;;5133291;27;20269;-78
2022/09/13 05:51:29;;;;;;;;;;;16.60;99.90;;;;;;5112928;27;19923;-77
2022/09/13 05:53:56;;;;;;;;;;;16.60;99.90;;;;;;5117770;27;19935;-77
2022/09/13 05:56:24;;;;;;;;;;;16.60;99.90;;;;;;5134955;27;19930;-76
2022/09/13 05:58:50;;;;;;;;;;;16.60;99.90;;;;;;5117128;27;19924;-78
2022/09/13 06:01:17;;;;;;;;;;;16.60;99.90;;;;;;5134197;27;19923;-79
2022/09/13 06:03:42;;;;;;;;;;;16.70;99.90;;;;;;5110399;27;19924;-79
2022/09/13 06:06:09;;;;;;;;;;;16.70;99.90;;;;;;5104182;27;19931;-79
2022/09/13 06:08:35;;;;;;;;;;;16.70;99.90;;;;;;5111840;27;19931;-79
2022/09/13 06:11:02;;;;;;;;;;;16.70;99.90;;;;;;5114086;27;19931;-80
2022/09/13 06:13:28;;;;;;;;;;;16.70;99.90;;;;;;5104208;27;19930;-80
2022/09/13 06:15:55;;;;;;;;;;;16.60;99.90;;;;;;5113688;27;20263;-81
2022/09/13 06:18:21;;;;;;;;;;;16.70;99.90;;;;;;5115046;27;20439;-79
2022/09/13 06:20:47;;;;;;;;;;;16.70;99.90;;;;;;5133974;27;19929;-79
2022/09/13 06:23:14;;;;;;;;;;;16.70;99.90;;;;;;5115222;27;20010;-80
2022/09/13 06:25:39;;;;;;;;;;;16.70;99.90;;;;;;5123867;27;19938;-79
2022/09/13 06:28:05;;;;;;;;;;;16.70;99.90;;;;;;5130530;27;19927;-78
2022/09/13 06:30:30;;;;;;;;;;;16.70;99.90;;;;;;5133033;27;19974;-79
2022/09/13 06:32:56;;;;;;;;;;;16.70;99.90;;;;;;5135403;27;20235;-79
2022/09/13 06:35:22;;;;;;;;;;;16.80;99.90;;;;;;5120155;27;19923;-80
2022/09/13 06:37:48;;;;;;;;;;;16.80;99.90;;;;;;5117440;27;19941;-79
2022/09/13 06:40:13;;;;;;;;;;;16.80;99.90;;;;;;5116331;27;19923;-76
2022/09/13 06:42:39;;;;;;;;;;;16.90;99.90;;;;;;5136014;27;19997;-76
2022/09/13 06:45:05;;;;;;;;;;;16.90;99.90;;;;;;5119695;27;19927;-76
2022/09/13 06:47:31;;;;;;;;;;;17.00;99.90;;;;;;5119208;27;19923;-76
2022/09/13 06:49:57;;;;;;;;;;;17.00;99.90;;;;;;5120188;27;19919;-75
2022/09/13 06:52:23;;;;;;;;;;;17.10;99.90;;;;;;5117849;27;19966;-76
2022/09/13 06:54:49;;;;;;;;;;;17.20;99.90;;;;;;5111995;27;19989;-75
2022/09/13 06:57:14;;;;;;;;;;;17.30;99.90;;;;;;5137728;27;20164;-75
2022/09/13 06:59:40;;;;;;;;;;;17.30;99.90;;;;;;5137331;27;19926;-76
2022/09/13 07:02:05;;;;;;;;;;;17.40;99.90;;;;;;5137507;27;19926;-75
2022/09/13 07:04:31;;;;;;;;;;;17.40;99.90;;;;;;5111308;27;20463;-79
2022/09/13 07:06:57;;;;;;;;;;;17.40;99.90;;;;;;5102294;27;19988;-75
2022/09/13 07:09:23;;;;;;;;;;;17.40;99.90;;;;;;5137154;27;19926;-76
2022/09/13 07:11:50;;;;;;;;;;;17.40;99.90;;;;;;5136541;27;19919;-75
2022/09/13 07:14:20;;;;;;;;;;;17.50;99.90;;;;;;5114962;27;19923;-75
2022/09/13 07:16:46;;;;;;;;;;;17.60;99.90;;;;;;5116457;27;19923;-75
2022/09/13 07:19:13;;;;;;;;;;;17.70;99.90;;;;;;5099459;27;19919;-75
2022/09/13 07:21:38;;;;;;;;;;;17.70;99.90;;;;;;5106332;27;19919;-76
2022/09/13 07:24:04;;;;;;;;;;;17.70;99.90;;;;;;5120137;27;20311;-75
2022/09/13 07:26:30;;;;;;;;;;;17.80;99.90;;;;;;5137068;27;19953;-75
2022/09/13 07:28:57;;;;;;;;;;;17.90;99.90;;;;;;5136636;27;19919;-75
2022/09/13 07:31:30;;;;;;;;;;;17.90;99.90;;;;;;5116992;27;19919;-75
2022/09/13 07:33:57;;;;;;;;;;;17.90;99.90;;;;;;5114473;27;20007;-75
2022/09/13 07:36:23;;;;;;;;;;;17.80;99.90;;;;;;5119125;27;20021;-76
2022/09/13 07:38:48;;;;;;;;;;;17.80;99.90;;;;;;5136385;27;19923;-75
2022/09/13 07:41:15;;;;;;;;;;;17.80;99.90;;;;;;5136750;27;19971;-75
2022/09/13 07:43:41;;;;;;;;;;;17.80;99.90;;;;;;5116895;27;20010;-76
2022/09/13 07:46:08;;;;;;;;;;;17.80;99.90;;;;;;5116794;27;19919;-76
2022/09/13 07:48:36;;;;;;;;;;;17.80;99.90;;;;;;5119328;27;19926;-76
2022/09/13 07:51:14;;;;;;;;;;;17.90;99.90;;;;;;5115559;28;19919;-76
2022/09/13 07:53:41;;;;;;;;;;;17.90;99.90;;;;;;5108554;28;19919;-76
2022/09/13 07:56:08;;;;;;;;;;;17.90;99.90;;;;;;5115948;27;20247;-75
2022/09/13 07:58:34;;;;;;;;;;;18.00;99.90;;;;;;5114796;27;20326;-78
2022/09/13 08:01:03;;;;;;;;;;;18.00;99.90;;;;;;5107670;27;19927;-77
2022/09/13 08:03:29;;;;;;;;;;;18.10;99.90;;;;;;5128897;28;19973;-77
2022/09/13 08:05:54;;;;;;;;;;;18.10;99.90;;;;;;5111239;27;19923;-77
2022/09/13 08:08:20;;;;;;;;;;;18.20;99.90;;;;;;5123178;27;19968;-77
2022/09/13 08:10:45;;;;;;;;;;;18.20;99.90;;;;;;5089480;27;20316;-77
2022/09/13 08:13:11;;;;;;;;;;;18.30;99.90;;;;;;5129203;27;19918;-78
2022/09/13 08:15:36;;;;;;;;;;;18.40;99.90;;;;;;5121977;27;19919;-77
2022/09/13 08:18:04;;;;;;;;;;;18.40;99.90;;;;;;5140092;27;19930;-79
2022/09/13 08:20:29;;;;;;;;;;;18.50;99.90;;;;;;5119227;27;20031;-92
2022/09/13 08:22:55;;;;;;;;;;;18.50;99.90;;;;;;5137602;27;19927;-85
2022/09/13 08:25:21;;;;;;;;;;;18.60;99.90;;;;;;5122611;27;19919;-77
2022/09/13 08:27:46;;;;;;;;;;;18.60;99.90;;;;;;5122822;27;19919;-78
2022/09/13 08:30:12;;;;;;;;;;;18.80;99.90;;;;;;5123254;27;19919;-82
2022/09/13 08:32:37;;;;;;;;;;;18.80;99.90;;;;;;5097156;27;19930;-80
2022/09/13 08:35:03;;;;;;;;;;;18.90;99.90;;;;;;5135798;27;19930;-81
2022/09/13 08:37:30;;;;;;;;;;;18.90;99.90;;;;;;5123059;27;19923;-86
2022/09/13 08:39:55;;;;;;;;;;;19.00;99.90;;;;;;5122344;27;19934;-85
2022/09/13 08:42:40;;;;;;;;;;;19.20;99.90;;;;;;5123129;27;19949;-86
2022/09/13 08:45:07;;;;;;;;;;;19.30;99.90;;;;;;5125301;27;19959;-87
2022/09/13 08:47:51;;;;;;;;;;;19.30;99.90;;;;;;5123079;27;19927;-88
2022/09/13 08:50:22;;;;;;;;;;;19.10;99.90;;;;;;5122156;27;19940;-84
2022/09/13 08:52:54;;;;;;;;;;;19.00;99.90;;;;;;5139143;27;19977;-89
2022/09/13 08:55:19;;;;;;;;;;;19.00;99.90;;;;;;5122074;27;19923;-85
2022/09/13 08:57:51;;;;;;;;;;;18.90;99.90;;;;;;5139292;27;19934;-84
2022/09/13 09:00:17;;;;;;;;;;;19.00;99.90;;;;;;5121951;27;19923;-84
2022/09/13 09:03:01;;;;;;;;;;;19.10;99.90;;;;;;5135088;27;19938;-83
2022/09/13 09:05:29;;;;;;;;;;;19.10;99.90;;;;;;5113552;27;19929;-83
2022/09/13 09:08:03;;;;;;;;;;;19.20;99.90;;;;;;5127363;27;19923;-80
2022/09/13 09:10:35;;;;;;;;;;;19.20;99.90;;;;;;5102247;27;19970;-83
2022/09/13 09:13:12;;;;;;;;;;;19.20;99.90;;;;;;5135642;27;19923;-83
2022/09/13 09:15:42;;;;;;;;;;;19.20;99.90;;;;;;5138922;27;19927;-82
2022/09/13 09:18:08;;;;;;;;;;;19.30;99.90;;;;;;5120798;27;20018;-83
2022/09/13 09:20:40;;;;;;;;;;;19.30;99.90;;;;;;5139183;27;19971;-82
2022/09/13 09:23:11;;;;;;;;;;;19.30;99.90;;;;;;5139040;27;19929;-83
2022/09/13 09:25:37;;;;;;;;;;;19.40;99.90;;;;;;5122086;27;20322;-82
2022/09/13 09:28:08;;;;;;;;;;;19.50;99.90;;;;;;5121608;27;19967;-81
2022/09/13 09:30:37;;;;;;;;;;;19.50;99.90;;;;;;5138978;27;19927;-80
2022/09/13 09:33:19;;;;;;;;;;;19.50;99.90;;;;;;5138319;27;19946;-81
2022/09/13 09:35:54;;;;;;;;;;;19.70;99.90;;;;;;5138426;27;19975;-81
2022/09/13 09:38:19;;;;;;;;;;;19.70;99.90;;;;;;5138472;27;19923;-80
2022/09/13 09:40:45;;;;;;;;;;;19.80;99.90;;;;;;5121715;27;20001;-79
2022/09/13 09:43:19;;;;;;;;;;;19.80;99.90;;;;;;5138142;27;20015;-78
2022/09/13 09:45:45;;;;;;;;;;;19.90;99.90;;;;;;5138242;27;19972;-78
2022/09/13 09:48:17;;;;;;;;;;;19.90;99.90;;;;;;5138150;27;19926;-78
2022/09/13 09:50:44;;;;;;;;;;;19.90;99.90;;;;;;5121147;27;19923;-82
2022/09/13 09:53:15;;;;;;;;;;;19.90;99.90;;;;;;5121040;27;19923;-83
2022/09/13 09:55:45;;;;;;;;;;;19.90;99.90;;;;;;5124107;27;20026;-82
2022/09/13 09:58:15;;;;;;;;;;;20.00;99.90;;;;;;5118890;27;19979;-86
2022/09/13 10:00:52;;;;;;;;;;;19.90;99.90;;;;;;5119461;27;19919;-87
2022/09/13 10:03:28;;;;;;;;;;;19.90;99.90;;;;;;5121210;27;19919;-86
2022/09/13 10:06:07;;;;;;;;;;;19.90;99.90;;;;;;5120841;27;20278;-86
2022/09/13 10:08:34;;;;;;;;;;;19.90;99.90;;;;;;5117522;27;19926;-85
2022/09/13 10:11:00;;;;;;;;;;;20.00;99.90;;;;;;5117957;27;20351;-84
2022/09/13 10:13:27;;;;;;;;;;;20.20;99.90;;;;;;5121025;27;19926;-86
2022/09/13 10:15:53;;;;;;;;;;;20.40;99.90;;;;;;5120857;27;19919;-87
2022/09/13 10:18:19;;;;;;;;;;;20.40;99.90;;;;;;5121542;27;19926;-91
2022/09/13 10:21:02;;;;;;;;;;;20.30;99.90;;;;;;5121870;27;20288;-90
2022/09/13 10:23:28;;;;;;;;;;;20.20;99.90;;;;;;5139235;27;19922;-89
2022/09/13 10:25:56;;;;;;;;;;;20.10;99.90;;;;;;5138729;27;19959;-91
2022/09/13 10:28:22;;;;;;;;;;;20.10;99.90;;;;;;5138303;27;19919;-89
2022/09/13 10:30:56;;;;;;;;;;;20.20;99.90;;;;;;5121653;27;19926;-90
2022/09/13 10:33:24;;;;;;;;;;;20.30;99.90;;;;;;5119416;27;19941;-88
2022/09/13 10:35:52;;;;;;;;;;;20.30;99.90;;;;;;5134782;27;19962;-85
2022/09/13 10:38:25;;;;;;;;;;;20.30;99.90;;;;;;5137295;27;20330;-86
2022/09/13 10:40:50;;;;;;;;;;;20.30;99.90;;;;;;5113556;27;20285;-82
2022/09/13 10:43:20;;;;;;;;;;;20.30;99.90;;;;;;5104084;27;19927;-85
2022/09/13 10:45:50;;;;;;;;;;;20.30;99.90;;;;;;5132539;27;20290;-86
2022/09/13 10:48:17;;;;;;;;;;;20.30;99.90;;;;;;5119846;27;20347;-85
2022/09/13 10:51:01;;;;;;;;;;;20.40;99.90;;;;;;5101895;27;19924;-85
2022/09/13 10:53:36;;;;;;;;;;;20.40;99.90;;;;;;5103329;27;20409;-85
2022/09/13 10:56:03;;;;;;;;;;;20.50;99.90;;;;;;5120177;27;19971;-85
2022/09/13 10:58:29;;;;;;;;;;;20.60;99.90;;;;;;5137568;27;20350;-84
2022/09/13 11:01:04;;;;;;;;;;;20.70;99.90;;;;;;5120569;27;19969;-86
2022/09/13 11:03:41;;;;;;;;;;;20.70;99.90;;;;;;5125443;27;20021;-86
2022/09/13 11:06:31;;;;;;;;;;;20.70;99.90;;;;;;5116796;27;20032;-84
2022/09/13 11:09:03;;;;;;;;;;;20.70;99.90;;;;;;5090072;27;19931;-85
2022/09/13 11:11:44;;;;;;;;;;;20.90;99.90;;;;;;5108376;27;20378;-81
2022/09/13 11:14:28;;;;;;;;;;;21.00;99.90;;;;;;5115947;27;20276;-81
2022/09/13 11:17:13;;;;;;;;;;;21.40;99.90;;;;;;5100641;27;20232;-81
2022/09/13 11:19:45;;;;;;;;;;;21.60;99.90;;;;;;5116780;27;19931;-81
2022/09/13 11:22:11;;;;;;;;;;;21.60;99.90;;;;;;5117737;27;20002;-80
2022/09/13 11:24:39;;;;;;;;;;;21.60;99.90;;;;;;5118502;27;19923;-81
2022/09/13 11:27:11;;;;;;;;;;;22.00;99.90;;;;;;5127125;27;20382;-83
2022/09/13 11:29:53;;;;;;;;;;;21.60;99.90;;;;;;5121786;27;20231;-84
2022/09/13 11:32:27;;;;;;;;;;;21.20;99.90;;;;;;5098874;27;19976;-83
2022/09/13 11:34:53;;;;;;;;;;;21.10;99.90;;;;;;5119757;27;19927;-82
2022/09/13 11:37:28;;;;;;;;;;;21.50;99.90;;;;;;5133757;27;20359;-82
2022/09/13 11:40:20;;;;;;;;;;;21.70;99.90;;;;;;5103596;27;19924;-81
2022/09/13 11:42:51;;;;;;;;;;;21.30;99.90;;;;;;5130156;27;19924;-82
2022/09/13 11:45:20;;;;;;;;;;;21.40;99.90;;;;;;5116939;27;19931;-83
2022/09/13 11:47:51;;;;;;;;;;;21.60;99.90;;;;;;5100678;28;19934;-82
2022/09/13 11:50:38;;;;;;;;;;;21.90;99.90;;;;;;5120009;28;20010;-84
2022/09/13 11:53:04;;;;;;;;;;;21.60;99.90;;;;;;5122340;28;19927;-86
2022/09/13 11:55:36;;;;;;;;;;;21.60;99.90;;;;;;5114307;27;19923;-86
2022/09/13 11:58:04;;;;;;;;;;;21.70;99.90;;;;;;5136588;27;19923;-85
2022/09/13 12:00:33;;;;;;;;;;;21.80;99.90;;;;;;5136431;27;19999;-84
2022/09/13 12:02:59;;;;;;;;;;;21.90;99.90;;;;;;5132226;28;19931;-85
2022/09/13 12:05:28;;;;;;;;;;;22.20;99.90;;;;;;5115692;28;19927;-85
2022/09/13 12:07:57;;;;;;;;;;;22.10;99.90;;;;;;5112303;27;19929;-85
2022/09/13 12:10:24;;;;;;;;;;;22.10;99.90;;;;;;5109179;28;19931;-85
2022/09/13 12:12:51;;;;;;;;;;;22.10;99.90;;;;;;5106033;27;19923;-85
2022/09/13 12:15:27;;;;;;;;;;;22.10;99.90;;;;;;5118796;27;19974;-84
2022/09/13 12:18:20;;;;;;;;;;;22.20;99.90;;;;;;5107328;28;19931;-85
2022/09/13 12:20:50;;;;;;;;;;;22.30;99.90;;;;;;5082405;28;20360;-88
2022/09/13 12:23:23;;;;;;;;;;;22.30;99.90;;;;;;5115531;27;19950;-80
2022/09/13 12:25:55;;;;;;;;;;;22.30;99.90;;;;;;5133524;27;19930;-82
2022/09/13 12:28:23;;;;;;;;;;;22.30;99.90;;;;;;5131452;27;19927;-89
2022/09/13 12:30:55;;;;;;;;;;;22.40;99.90;;;;;;5133217;27;20386;-88
2022/09/13 12:33:21;;;;;;;;;;;22.40;99.90;;;;;;5132951;27;19972;-83
2022/09/13 12:35:52;;;;;;;;;;;22.60;99.90;;;;;;5095131;27;19927;-82
2022/09/13 12:38:18;;;;;;;;;;;22.90;99.90;;;;;;5143370;27;19927;-83
2022/09/13 12:41:07;;;;;;;;;;;23.20;99.90;;;;;;5111429;27;19927;-83
2022/09/13 12:43:33;;;;;;;;;;;23.30;98.80;;;;;;5133120;27;20126;-80
2022/09/13 12:45:58;;;;;;;;;;;23.20;98.20;;;;;;5133204;27;20441;-83
2022/09/13 12:48:36;;;;;;;;;;;23.00;98.00;;;;;;5101690;27;20054;-83
2022/09/13 12:51:22;;;;;;;;;;;22.90;98.80;;;;;;5116027;27;19923;-83
2022/09/13 12:54:01;;;;;;;;;;;22.80;99.20;;;;;;5099938;27;19953;-83
2022/09/13 12:56:36;;;;;;;;;;;23.00;99.50;;;;;;5119131;27;19935;-83
2022/09/13 12:59:02;;;;;;;;;;;22.90;98.60;;;;;;5136010;27;19923;-81
2022/09/13 13:01:32;;;;;;;;;;;23.10;99.30;;;;;;5109407;27;19930;-81
2022/09/13 13:04:24;;;;;;;;;;;23.00;98.80;;;;;;5119856;27;19930;-81
2022/09/13 13:06:53;;;;;;;;;;;22.80;99.00;;;;;;5115037;27;20435;-80
2022/09/13 13:09:24;;;;;;;;;;;22.80;99.90;;;;;;5131184;27;20293;-81
2022/09/13 13:11:50;;;;;;;;;;;22.50;99.90;;;;;;5098939;27;20369;-81
2022/09/13 13:14:41;;;;;;;;;;;22.50;99.90;;;;;;5112311;27;20018;-80
2022/09/13 13:17:25;;;;;;;;;;;22.60;99.90;;;;;;5099279;27;19974;-80
2022/09/13 13:19:51;;;;;;;;;;;22.80;99.80;;;;;;5120016;27;19931;-81
2022/09/13 13:22:55;;;;;;;;;;;23.00;99.60;;;;;;5107588;27;19973;-79
2022/09/13 13:25:30;;;;;;;;;;;22.80;99.40;;;;;;5031119;28;19938;-78
2022/09/13 13:27:57;;;;;;;;;;;22.80;99.20;;;;;;5037670;28;20015;-84
2022/09/13 13:30:40;;;;;;;;;;;23.00;99.50;;;;;;5065599;27;19934;-83
2022/09/13 13:33:12;;;;;;;;;;;23.30;98.70;;;;;;5134355;27;20371;-82
2022/09/13 13:35:37;;;;;;;;;;;23.50;98.50;;;;;;5135998;27;20374;-82
2022/09/13 13:38:21;;;;;;;;;;;23.60;98.00;;;;;;5094347;27;19934;-80
2022/09/13 13:40:49;;;;;;;;;;;23.90;98.40;;;;;;5114674;27;19928;-81
2022/09/13 13:43:16;;;;;;;;;;;23.90;98.10;;;;;;5098389;27;19975;-80
2022/09/13 13:46:14;;;;;;;;;;;24.10;97.20;;;;;;5097801;27;20355;-81
2022/09/13 13:48:40;;;;;;;;;;;24.40;97.00;;;;;;5114681;27;19927;-85
2022/09/13 13:51:20;;;;;;;;;;;24.40;96.00;;;;;;5086169;27;19949;-82
2022/09/13 13:53:54;;;;;;;;;;;24.70;97.10;;;;;;5136239;27;19957;-82
2022/09/13 13:56:27;;;;;;;;;;;25.20;96.30;;;;;;5112862;27;19927;-84
2022/09/13 13:58:56;;;;;;;;;;;25.80;95.50;;;;;;5102899;27;19923;-82
2022/09/13 14:01:24;;;;;;;;;;;26.40;95.30;;;;;;5119005;27;19991;-83
2022/09/13 14:04:20;;;;;;;;;;;26.50;94.50;;;;;;5135928;27;19927;-84
2022/09/13 14:06:55;;;;;;;;;;;26.50;93.80;;;;;;5118903;27;19943;-77
2022/09/13 14:09:26;;;;;;;;;;;25.50;93.60;;;;;;5118924;27;19923;-83
2022/09/13 14:12:06;;;;;;;;;;;25.30;94.00;;;;;;5136437;27;19973;-82
2022/09/13 14:14:57;;;;;;;;;;;25.60;94.10;;;;;;5119487;27;19927;-84
2022/09/13 14:17:41;;;;;;;;;;;25.80;93.70;;;;;;5118149;27;19927;-83
2022/09/13 14:20:10;;;;;;;;;;;26.30;93.50;;;;;;5118348;27;19933;-82
2022/09/13 14:22:36;;;;;;;;;;;26.70;92.90;;;;;;5118984;27;20403;-84
2022/09/13 14:25:23;;;;;;;;;;;27.40;92.60;;;;;;5119151;27;19927;-82
2022/09/13 14:27:49;;;;;;;;;;;27.70;91.40;;;;;;5116577;27;20016;-83
2022/09/13 14:30:31;;;;;;;;;;;27.70;90.30;;;;;;5117419;27;19919;-84
2022/09/13 14:32:57;;;;;;;;;;;27.40;89.30;;;;;;5132698;27;19983;-84
2022/09/13 14:35:25;;;;;;;;;;;27.70;91.50;;;;;;5152362;27;20361;-84